Sedgwick Reserve, California Weather observations

Data are for 10 minute period ending at time listed.
 Day   Time   Solar   Ave.   Ave.  Ave.  Vector  Max.   Baro.   Total    
  of    of     Rad.   Air    Rel.  Wind   Wind   Wind  Press.  Precip.   
Year   Day            Temp.  Hum.  Speed  Dir.   Gust                    
2015   (PST)  Kw/m2    F      %     mph   deg.    mph    mb.     in.     
-------------------------------------------------------------------------
 247    7:00   0.08   54.9    89    3.3    70     5.0   970.5    0.00 
 247    7:10   0.08   55.3    88    2.0   125     4.2   970.5    0.00 
 247    7:20   0.09   55.3    87    3.5   135     6.5   970.6    0.00 
 247    7:30   0.12   55.5    87    2.5    73     5.6   970.7    0.00 
 247    7:40   0.13   56.1    85    1.7   145     4.5   970.7    0.00 
 247    7:50   0.14   56.2    84    1.3   239     2.7   970.7    0.00 
 247    8:00   0.14   56.4    84    0.6   183     1.7   970.8    0.00 
 247    8:10   0.35   57.3    82    0.7    27     2.3   970.8    0.00 
 247    8:20   0.50   60.0    76    0.9   274     2.3   970.8    0.00 
 247    8:30   0.49   61.0    73    2.0   164     5.0   970.8    0.00 
 247    8:40   0.52   62.8    70    2.8   127     5.0   970.9    0.00 
 247    8:50   0.54   64.2    67    2.3   111     5.3   970.9    0.00 
 247    9:00   0.57   65.2    65    2.6    95     6.3   970.9    0.00 
 247    9:10   0.60   65.6    65    3.7   133     7.8   971.0    0.00 
 247    9:20   0.62   65.9    64    3.3   106     6.8   971.1    0.00 
 247    9:30   0.65   67.3    62    2.6   138     6.1   971.1    0.00 
 247    9:40   0.68   67.9    61    3.3   175     8.5   971.2    0.00 
 247    9:50   0.70   69.7    58    3.4   158     9.3   971.2    0.00 
 247   10:00   0.73   68.3    60    5.8   248    10.8   971.2    0.00 
 247   10:10   0.75   67.6    61    4.5   246     9.2   971.2    0.00 
 247   10:20   0.77   69.4    58    4.3   225     9.7   971.2    0.00 
 247   10:30   0.78   69.2    59    5.8   224     9.9   971.1    0.00 
 247   10:40   0.81   69.7    58    6.8   197    11.3   971.1    0.00 
 247   10:50   0.70   69.9    59    7.0   203    12.7   971.1    0.00 
 247   11:00   0.83   70.5    57    5.5   246    10.2   970.9    0.00 
 247   11:10   0.84   70.9    56    6.8   210    13.7   970.9    0.00 
 247   11:20   0.80   70.7    57    9.2   247    13.9   970.7    0.00 
 247   11:30   0.84   70.9    56    7.2   218    13.5   970.7    0.00 
 247   11:40   0.84   70.9    55    8.2   237    14.8   970.5    0.00 
 247   11:50   0.84   72.1    53    8.0   225    14.2   970.4    0.00 
 247   12:00   0.85   73.2    51    7.5   223    14.8   970.3    0.00 
 247   12:10   0.84   73.6    50    8.5   234    15.7   970.3    0.00 
 247   12:20   0.85   74.0    49    7.5   250    14.8   970.2    0.00 
 247   12:30   0.85   74.1    49    6.7   252    12.7   970.1    0.00 
 247   12:40   0.85   74.2    48    9.4   256    15.5   970.0    0.00 
 247   12:50   0.83   73.8    49    9.0   259    15.0   969.9    0.00 
 247   13:00   0.83   74.8    47    7.8   266    13.4   969.7    0.00 
 247   13:10   0.82   76.0    46    6.9   267    11.9   969.5    0.00 
 247   13:20   0.81   74.8    47    9.6   253    16.2   969.4    0.00 
 247   13:30   0.79   75.1    46    8.1   263    15.1   969.3    0.00 
 247   13:40   0.78   75.1    46    8.6   260    16.7   969.2    0.00 
 247   13:50   0.77   76.1    44    8.0   258    15.0   969.2    0.00 
 247   14:00   0.75   75.9    44    7.5   237    13.6   969.1    0.00 
 247   14:10   0.73   76.5    43    8.3   265    17.2   969.1    0.00 
 247   14:20   0.71   77.5    42    7.7   291    12.3   969.1    0.00 
 247   14:30   0.68   75.8    45   11.3   258    18.0   969.0    0.00 
 247   14:40   0.66   75.1    45   11.4   273    18.4   969.0    0.00 
 247   14:50   0.63   75.8    44   10.5   279    17.2   968.9    0.00 
 247   15:00   0.60   75.3    45   10.5   282    15.8   968.9    0.00 
 247   15:10   0.57   75.2    46   11.1   282    18.0   968.9    0.00 
 247   15:20   0.55   74.0    48   10.4   288    20.2   969.0    0.00 
 247   15:30   0.52   74.0    48   10.5   290    19.4   969.1    0.00 
 247   15:40   0.49   74.1    48    9.1   293    18.3   969.1    0.00 
 247   15:50   0.46   73.0    50   10.2   300    17.6   969.2    0.00 
 247   16:00   0.42   73.2    49    8.1   297    15.1   969.2    0.00 
 247   16:10   0.39   71.8    51   11.4   305    18.2   969.2    0.00 
 247   16:20   0.35   71.1    52   10.3   304    18.9   969.2    0.00 
 247   16:30   0.32   70.7    53   10.7   292    16.1   969.3    0.00 
 247   16:40   0.28   70.2    54    9.2   281    16.7   969.3    0.00 
 247   16:50   0.25   69.4    55    7.8   302    14.1   969.4    0.00 
 247   17:00   0.22   68.8    56    8.9   306    16.1   969.3    0.00 
 247   17:10   0.18   68.5    56    6.7   290    13.6   969.4    0.00 
 247   17:20   0.15   68.8    56    6.4   290    12.3   969.4    0.00 
 247   17:30   0.12   67.5    58    6.1   276     9.9   969.4    0.00 
 247   17:40   0.09   67.4    58    6.6   285    11.5   969.3    0.00 
 247   17:50   0.07   66.1    60    6.6   278    11.9   969.2    0.00 
 247   18:00   0.04   65.3    62    7.5   274    12.2   968.9    0.00 
 247   18:10   0.02   64.7    63    6.2   274    10.2   968.8    0.00 
 247   18:20   0.01   64.1    64    5.1   277     7.8   968.9    0.00 
 247   18:30   0.00   63.6    64    3.9   288     7.0   968.9    0.00 
 247   18:40   0.00   62.8    66    6.3   280    12.3   969.0    0.00 
 247   18:50   0.00   62.1    67    6.0   301    12.1   969.0    0.00 
 247   19:00   0.00   61.4    69    5.1   301     8.6   969.0    0.00 
 247   19:10   0.00   60.9    70    3.6   294     7.9   969.2    0.00 
 247   19:20   0.00   60.4    71    3.4   278     8.6   969.3    0.00 
 247   19:30   0.00   60.0    72    3.8   275     7.4   969.5    0.00 
 247   19:40   0.00   59.6    72    3.2   273     7.5   969.7    0.00 
 247   19:50   0.00   59.1    73    3.4   281     7.7   969.8    0.00 
 247   20:00   0.00   58.8    75    2.0   313     3.9   969.9    0.00 
 247   20:10   0.00   58.4    76    0.5   341     3.1   970.0    0.00 
 247   20:20   0.00   57.8    76    0.2   219     1.2   970.1    0.00 
 247   20:30   0.00   57.4    78    0.8   208     1.5   970.2    0.00 
 247   20:40   0.00   56.9    78    0.1   208     0.7   970.2    0.00 
 247   20:50   0.00   56.2    79    0.2   242     2.3   970.2    0.00 
 247   21:00   0.00   55.2    79    2.9   264     3.7   970.3    0.00 
 247   21:10   0.00   55.1    81    1.8   284     3.5   970.3    0.00 
 247   21:20   0.00   53.9    83    2.5    15     3.1   970.3    0.00 
 247   21:30   0.00   53.3    84    1.2    21     2.3   970.3    0.00 
 247   21:40   0.00   52.9    83    0.0   343     0.7   970.3    0.00 
 247   21:50   0.00   52.6    85    0.0     1     0.7   970.4    0.00 
 247   22:00   0.00   52.3    85    0.2     1     0.8   970.5    0.00 
 247   22:10   0.00   51.6    86    1.0   358     2.5   970.4    0.00 
 247   22:20   0.00   50.4    87    4.4   353     5.4   970.4    0.00 
 247   22:30   0.00   50.4    87    1.6   330     4.8   970.3    0.00 
 247   22:40   0.00   50.8    87    0.6   305     2.8   970.3    0.00 
 247   22:50   0.00   50.0    88    2.7   355     4.5   970.5    0.00 
 247   23:00   0.00   49.8    89    3.3   353     5.3   970.5    0.00 
 247   23:10   0.00   50.1    88    1.7   328     3.4   970.5    0.00 
 247   23:20   0.00   50.6    88    2.2   336     3.7   970.5    0.00 
 247   23:30   0.00   50.4    87    0.4   342     1.8   970.4    0.00 
 247   23:40   0.00   50.1    87    0.7   316     2.1   970.4    0.00 
 247   23:50   0.00   50.0    88    2.7   349     4.2   970.4    0.00 
 248    0:00   0.00   50.0    88    1.3   329     2.9   970.5    0.00 
 248    0:10   0.00   50.3    88    1.9   344     3.4   970.4    0.00 
 248    0:20   0.00   50.0    87    0.8   317     2.2   970.3    0.00 
 248    0:30   0.00   50.1    87    1.6   252     2.2   970.2    0.00 
 248    0:40   0.00   49.9    88    1.6     4     2.7   970.1    0.00 
 248    0:50   0.00   49.6    88    0.0     4     1.2   970.2    0.00 
 248    1:00   0.00   49.5    88    1.4     3     2.1   970.2    0.00 
 248    1:10   0.00   49.3    89    0.7   328     1.5   970.2    0.00 
 248    1:20   0.00   49.4    89    0.4   304     1.2   970.2    0.00 
 248    1:30   0.00   49.3    88    1.8   282     3.2   970.3    0.00 
 248    1:40   0.00   49.2    89    3.3   354     5.5   970.2    0.00 
 248    1:50   0.00   49.3    91    4.3   356     6.2   970.1    0.00 
 248    2:00   0.00   49.4    90    0.4   289     1.7   970.0    0.00 
 248    2:10   0.00   49.5    90    0.9   279     1.7   970.0    0.00 
 248    2:20   0.00   49.5    90    0.0   308     0.9   970.1    0.00 
 248    2:30   0.00   48.9    91    1.5    17     3.1   970.1    0.00 
 248    2:40   0.00   48.5    91    2.7     7     4.2   970.0    0.00 
 248    2:50   0.00   48.2    92    2.6   358     3.4   969.9    0.00 
 248    3:00   0.00   48.5    92    1.1   280     2.4   969.8    0.00 
 248    3:10   0.00   48.5    92    1.3    12     2.6   969.7    0.00 
 248    3:20   0.00   48.3    93    1.6   345     3.2   969.8    0.00 
 248    3:30   0.00   48.2    93    1.3   344     3.1   969.8    0.00 
 248    3:40   0.00   47.8    93    0.3   191     1.2   969.8    0.00 
 248    3:50   0.00   48.0    93    0.6   260     1.8   969.8    0.00 
 248    4:00   0.00   48.1    93    0.3   296     1.8   970.0    0.00 
 248    4:10   0.00   47.5    93    1.8     9     3.4   970.0    0.00 
 248    4:20   0.00   47.8    94    0.1   297     1.2   970.0    0.00 
 248    4:30   0.00   47.8    94    1.1   356     3.2   970.1    0.00 
 248    4:40   0.00   47.2    94    1.6   261     2.7   970.2    0.00 
 248    4:50   0.00   47.8    94    0.5    16     2.2   970.3    0.00 
 248    5:00   0.00   47.5    94    0.4    27     1.7   970.3    0.00 
 248    5:10   0.00   47.4    94    0.7   226     1.6   970.4    0.00 
 248    5:20   0.00   48.3    94    0.7   283     2.2   970.5    0.00 
 248    5:30   0.00   47.0    94    2.9   354     4.2   970.6    0.00 
 248    5:40   0.00   47.2    95    0.9   280     2.5   970.8    0.00 
 248    5:50   0.01   47.7    94    0.1   320     2.8   971.0    0.00 
 248    6:00   0.02   47.1    95    4.2   358     5.1   971.1    0.00 
 248    6:10   0.05   47.5    95    1.5   296     4.1   971.2    0.00 
 248    6:20   0.08   49.2    94    0.1   245     0.8   971.2    0.00 
 248    6:30   0.10   50.0    94    0.1   245     0.9   971.3    0.00 
 248    6:40   0.13   52.2    91    0.8   245     1.6   971.4    0.00 
 248    6:50   0.16   53.3    87    0.5    15     2.6   971.4    0.00 

Return to Sedgwick Reserve graphs page.


Western Regional Climate Center,wrcc@dri.edu